Time;durP1;ratioP1;P1;durP2;ratioP2;P2;SDS_P1;SDS_P2;PMS_P1;PMS_P2;Temp;Humidity;BMP_temperature;BMP_pressure;BME280_temperature;BME280_humidity;BME280_pressure;Samples;Min_cycle;Max_cycle;Signal;HPM_P1;HPM_P2
2023/11/22 00:00:53;;;;;;;3.33;2.00;;;;;;;;;;5116548;28;20024;-86
2023/11/22 00:03:19;;;;;;;3.57;2.30;;;;;;;;;;5098058;28;20046;-86
2023/11/22 00:05:44;;;;;;;3.00;1.80;;;;;;;;;;5115989;28;20024;-86
2023/11/22 00:08:09;;;;;;;4.67;3.03;;;;;;;;;;5115925;28;20038;-87
2023/11/22 00:10:34;;;;;;;6.13;3.57;;;;;;;;;;5116027;28;20271;-86
2023/11/22 00:13:00;;;;;;;6.33;3.77;;;;;;;;;;5116045;28;20047;-86
2023/11/22 00:15:25;;;;;;;6.80;4.72;;;;;;;;;;5097752;28;20080;-86
2023/11/22 00:17:51;;;;;;;6.70;4.50;;;;;;;;;;5115962;28;20031;-86
2023/11/22 00:20:17;;;;;;;7.95;4.28;;;;;;;;;;5115693;28;20437;-86
2023/11/22 00:22:44;;;;;;;9.88;5.63;;;;;;;;;;5116225;28;20027;-86
2023/11/22 00:25:13;;;;;;;8.13;4.85;;;;;;;;;;5116106;28;20126;-86
2023/11/22 00:27:38;;;;;;;8.15;5.22;;;;;;;;;;5097204;28;20373;-86
2023/11/22 00:30:04;;;;;;;9.23;4.40;;;;;;;;;;5097557;28;20520;-86
2023/11/22 00:32:29;;;;;;;8.45;4.72;;;;;;;;;;5115474;28;20023;-86
2023/11/22 00:34:54;;;;;;;8.97;4.77;;;;;;;;;;5116157;28;20031;-86
2023/11/22 00:37:20;;;;;;;10.43;5.47;;;;;;;;;;5116247;28;20248;-86
2023/11/22 00:39:45;;;;;;;8.37;4.87;;;;;;;;;;5097770;28;20027;-86
2023/11/22 00:42:10;;;;;;;8.73;4.73;;;;;;;;;;5115503;28;20687;-86
2023/11/22 00:44:38;;;;;;;8.07;4.40;;;;;;;;;;5096351;28;20275;-86
2023/11/22 00:47:03;;;;;;;9.18;4.55;;;;;;;;;;5115184;28;20019;-86
2023/11/22 00:49:29;;;;;;;7.20;4.60;;;;;;;;;;5114987;28;20024;-86
2023/11/22 00:51:54;;;;;;;7.75;4.57;;;;;;;;;;5097222;28;20525;-85
2023/11/22 00:54:22;;;;;;;6.90;4.37;;;;;;;;;;5115487;28;20377;-87
2023/11/22 00:56:47;;;;;;;6.18;3.70;;;;;;;;;;5115021;28;20347;-87
2023/11/22 00:59:13;;;;;;;6.20;4.13;;;;;;;;;;5097259;28;20135;-86
2023/11/22 01:01:39;;;;;;;6.80;4.15;;;;;;;;;;5115137;28;20690;-87
2023/11/22 01:04:06;;;;;;;5.90;3.55;;;;;;;;;;5114522;28;20521;-87
2023/11/22 01:06:31;;;;;;;5.20;3.58;;;;;;;;;;5096691;28;20052;-87
2023/11/22 01:08:57;;;;;;;7.78;3.33;;;;;;;;;;5112924;28;20490;-86
2023/11/22 01:11:22;;;;;;;5.15;3.20;;;;;;;;;;5113896;28;20110;-87
2023/11/22 01:13:47;;;;;;;4.63;3.20;;;;;;;;;;5113927;28;20040;-86
2023/11/22 01:16:13;;;;;;;4.63;3.07;;;;;;;;;;5113769;28;20252;-86
2023/11/22 01:18:38;;;;;;;5.18;3.15;;;;;;;;;;5113706;28;20275;-87
2023/11/22 01:21:03;;;;;;;4.20;2.40;;;;;;;;;;5113426;28;20015;-86
2023/11/22 01:23:29;;;;;;;4.60;2.97;;;;;;;;;;5113412;28;20456;-88
2023/11/22 01:25:55;;;;;;;4.88;3.15;;;;;;;;;;5113947;28;20027;-87
2023/11/22 01:28:20;;;;;;;5.20;3.08;;;;;;;;;;5113510;28;20507;-86
2023/11/22 01:30:45;;;;;;;3.63;2.60;;;;;;;;;;5113439;28;20035;-87
2023/11/22 01:33:11;;;;;;;5.97;3.08;;;;;;;;;;5094721;28;20030;-89
2023/11/22 01:35:36;;;;;;;3.72;2.80;;;;;;;;;;5113742;28;20457;-87
2023/11/22 01:38:04;;;;;;;7.90;3.08;;;;;;;;;;5077812;28;20122;-86
2023/11/22 01:40:29;;;;;;;5.45;3.13;;;;;;;;;;5095160;28;20026;-87
2023/11/22 01:42:55;;;;;;;7.00;3.30;;;;;;;;;;5113395;28;20020;-88
2023/11/22 01:45:20;;;;;;;5.82;3.22;;;;;;;;;;5113304;28;20042;-86
2023/11/22 01:47:45;;;;;;;4.90;3.17;;;;;;;;;;5113010;28;20035;-87
2023/11/22 01:50:10;;;;;;;4.78;2.85;;;;;;;;;;5095153;28;20264;-86
2023/11/22 01:52:36;;;;;;;4.18;2.65;;;;;;;;;;5113647;28;20023;-88
2023/11/22 01:55:04;;;;;;;7.97;3.35;;;;;;;;;;5094227;28;20384;-86
2023/11/22 01:57:30;;;;;;;6.35;2.80;;;;;;;;;;5113110;28;20049;-87
2023/11/22 01:59:56;;;;;;;3.95;2.80;;;;;;;;;;5112538;28;20031;-87
2023/11/22 02:02:21;;;;;;;4.93;3.08;;;;;;;;;;5113403;28;20015;-87
2023/11/22 02:04:46;;;;;;;5.10;2.80;;;;;;;;;;5112900;28;20019;-87
2023/11/22 02:07:11;;;;;;;5.70;3.20;;;;;;;;;;5094682;28;20077;-88
2023/11/22 02:09:36;;;;;;;7.30;3.55;;;;;;;;;;5095627;28;20255;-87
2023/11/22 02:12:02;;;;;;;6.32;3.78;;;;;;;;;;5113429;28;20395;-86
2023/11/22 02:14:27;;;;;;;5.43;3.75;;;;;;;;;;5113817;28;20066;-87
2023/11/22 02:16:52;;;;;;;6.18;3.60;;;;;;;;;;5114190;28;20132;-87
2023/11/22 02:19:18;;;;;;;5.53;3.63;;;;;;;;;;5113598;28;20062;-86
2023/11/22 02:21:44;;;;;;;9.48;3.25;;;;;;;;;;5095667;28;20032;-85
2023/11/22 02:24:09;;;;;;;7.55;4.15;;;;;;;;;;5113577;28;20511;-85
2023/11/22 02:26:36;;;;;;;7.05;4.18;;;;;;;;;;5113737;28;20490;-85
2023/11/22 02:29:04;;;;;;;7.85;4.20;;;;;;;;;;5113505;28;20063;-85
2023/11/22 02:31:29;;;;;;;5.85;3.40;;;;;;;;;;5113689;28;20031;-85
2023/11/22 02:33:55;;;;;;;8.38;4.00;;;;;;;;;;5114008;28;20073;-85
2023/11/22 02:36:21;;;;;;;7.45;4.22;;;;;;;;;;5113863;28;20383;-85
2023/11/22 02:38:47;;;;;;;8.02;3.90;;;;;;;;;;5113879;28;20112;-85
2023/11/22 02:41:13;;;;;;;8.50;4.60;;;;;;;;;;5114037;28;20452;-85
2023/11/22 02:43:38;;;;;;;7.90;4.18;;;;;;;;;;5114076;28;20343;-85
2023/11/22 02:46:03;;;;;;;7.43;4.25;;;;;;;;;;5113349;28;20024;-85
2023/11/22 02:48:29;;;;;;;7.07;3.85;;;;;;;;;;5113667;28;20069;-85
2023/11/22 02:50:55;;;;;;;7.00;4.22;;;;;;;;;;5113287;28;20016;-84
2023/11/22 02:53:20;;;;;;;8.27;3.83;;;;;;;;;;5113614;28;20016;-85
2023/11/22 02:55:45;;;;;;;8.53;3.50;;;;;;;;;;5113624;28;20024;-85
2023/11/22 02:58:12;;;;;;;6.10;3.90;;;;;;;;;;5113582;28;20284;-86
2023/11/22 03:00:38;;;;;;;5.25;3.65;;;;;;;;;;5087540;28;20256;-84
2023/11/22 03:03:08;;;;;;;7.07;3.88;;;;;;;;;;5113571;28;20031;-84
2023/11/22 03:05:33;;;;;;;8.85;3.72;;;;;;;;;;5113655;28;20019;-84
2023/11/22 03:07:58;;;;;;;7.07;4.10;;;;;;;;;;5116940;28;20047;-84
2023/11/22 03:10:24;;;;;;;8.77;4.37;;;;;;;;;;5116000;28;20263;-86
2023/11/22 03:12:49;;;;;;;6.75;4.28;;;;;;;;;;5116496;28;20309;-84
2023/11/22 03:15:14;;;;;;;7.80;4.33;;;;;;;;;;5116925;28;20015;-85
2023/11/22 03:17:39;;;;;;;6.38;3.97;;;;;;;;;;5117396;28;20256;-84
2023/11/22 03:20:09;;;;;;;6.05;3.25;;;;;;;;;;5116848;28;20031;-84
2023/11/22 03:22:35;;;;;;;6.50;3.70;;;;;;;;;;5099035;28;20368;-84
2023/11/22 03:25:02;;;;;;;6.68;4.40;;;;;;;;;;5098328;28;20038;-84
2023/11/22 03:27:27;;;;;;;6.68;3.60;;;;;;;;;;5116892;28;20039;-85
2023/11/22 03:29:52;;;;;;;6.38;3.63;;;;;;;;;;5116695;28;20015;-84
2023/11/22 03:32:18;;;;;;;5.35;3.45;;;;;;;;;;5098618;28;20020;-84
2023/11/22 03:34:43;;;;;;;5.13;3.10;;;;;;;;;;5116607;28;20023;-84
2023/11/22 03:37:08;;;;;;;5.37;2.73;;;;;;;;;;5117065;28;20268;-84
2023/11/22 03:39:33;;;;;;;5.70;3.47;;;;;;;;;;5098548;28;20256;-85
2023/11/22 03:41:58;;;;;;;6.93;2.97;;;;;;;;;;5116565;28;20252;-84
2023/11/22 03:44:24;;;;;;;5.50;3.17;;;;;;;;;;5116268;28;20724;-84
2023/11/22 03:46:49;;;;;;;4.57;2.77;;;;;;;;;;5116322;28;20732;-85
2023/11/22 03:49:15;;;;;;;4.90;2.78;;;;;;;;;;5116089;28;20631;-85
2023/11/22 03:51:40;;;;;;;5.57;2.63;;;;;;;;;;5098182;28;20020;-84
2023/11/22 03:54:06;;;;;;;3.45;2.45;;;;;;;;;;5098584;28;20256;-84
2023/11/22 03:56:31;;;;;;;5.45;2.75;;;;;;;;;;5116219;28;20518;-86
2023/11/22 03:58:56;;;;;;;4.72;2.90;;;;;;;;;;5116642;28;20031;-84
2023/11/22 04:01:22;;;;;;;3.17;2.15;;;;;;;;;;5116105;28;20507;-84
2023/11/22 04:03:51;;;;;;;4.22;2.70;;;;;;;;;;5115942;28;20095;-85
2023/11/22 04:06:16;;;;;;;4.93;3.00;;;;;;;;;;5098041;28;20468;-84
2023/11/22 04:08:45;;;;;;;4.57;3.13;;;;;;;;;;5097858;28;20031;-84
2023/11/22 04:11:11;;;;;;;4.13;2.63;;;;;;;;;;5116181;28;20035;-84
2023/11/22 04:13:37;;;;;;;5.43;3.05;;;;;;;;;;5116229;28;20094;-84
2023/11/22 04:16:02;;;;;;;6.10;3.00;;;;;;;;;;5116225;28;20016;-85
2023/11/22 04:18:27;;;;;;;5.55;2.88;;;;;;;;;;5115976;28;20020;-84
2023/11/22 04:20:52;;;;;;;4.07;2.25;;;;;;;;;;5115771;28;20015;-84
2023/11/22 04:23:18;;;;;;;4.97;2.50;;;;;;;;;;5115942;28;20172;-84
2023/11/22 04:25:43;;;;;;;7.47;2.70;;;;;;;;;;5115578;28;20028;-85
2023/11/22 04:28:09;;;;;;;5.07;3.03;;;;;;;;;;5115915;28;20031;-84
2023/11/22 04:30:35;;;;;;;5.00;3.17;;;;;;;;;;5115866;28;20019;-84
2023/11/22 04:33:01;;;;;;;7.72;3.42;;;;;;;;;;5115637;28;20024;-85
2023/11/22 04:35:26;;;;;;;5.65;2.92;;;;;;;;;;5115592;28;20052;-84
2023/11/22 04:37:52;;;;;;;6.20;3.03;;;;;;;;;;5115463;28;20015;-85
2023/11/22 04:40:17;;;;;;;4.15;2.50;;;;;;;;;;5097352;28;20248;-84
2023/11/22 04:42:43;;;;;;;6.78;3.53;;;;;;;;;;5115518;28;20379;-84
2023/11/22 04:45:09;;;;;;;6.63;2.90;;;;;;;;;;5115483;28;20019;-86
2023/11/22 04:47:34;;;;;;;6.60;2.83;;;;;;;;;;5096854;28;20035;-86
2023/11/22 04:50:00;;;;;;;6.33;2.97;;;;;;;;;;5115770;28;20060;-86
2023/11/22 04:52:25;;;;;;;5.37;3.03;;;;;;;;;;5115431;28;20323;-86
2023/11/22 04:54:50;;;;;;;7.33;2.87;;;;;;;;;;5114765;28;20340;-86
2023/11/22 04:57:15;;;;;;;8.25;3.33;;;;;;;;;;5114987;28;20342;-86
2023/11/22 04:59:40;;;;;;;6.67;2.83;;;;;;;;;;5115299;28;20023;-86
2023/11/22 05:02:07;;;;;;;7.05;3.22;;;;;;;;;;5115146;28;20330;-86
2023/11/22 05:04:32;;;;;;;5.18;2.97;;;;;;;;;;5115132;28;20016;-86
2023/11/22 05:06:57;;;;;;;5.28;2.95;;;;;;;;;;5114991;28;20035;-85
2023/11/22 05:09:22;;;;;;;5.33;3.10;;;;;;;;;;5096882;28;20035;-86
2023/11/22 05:11:47;;;;;;;7.87;3.17;;;;;;;;;;5114481;28;20334;-85
2023/11/22 05:14:13;;;;;;;5.60;3.50;;;;;;;;;;5114848;28;20248;-86
2023/11/22 05:16:38;;;;;;;5.75;3.20;;;;;;;;;;5114754;28;20019;-86
2023/11/22 05:19:03;;;;;;;4.72;2.85;;;;;;;;;;5108560;28;20023;-85
2023/11/22 05:21:29;;;;;;;6.23;3.60;;;;;;;;;;5114394;28;20098;-85
2023/11/22 05:23:54;;;;;;;9.65;3.53;;;;;;;;;;5114592;28;20248;-85
2023/11/22 05:26:20;;;;;;;5.85;3.45;;;;;;;;;;5114451;28;20034;-85
2023/11/22 05:28:47;;;;;;;6.40;3.42;;;;;;;;;;5113724;28;20487;-85
2023/11/22 05:31:12;;;;;;;8.57;3.28;;;;;;;;;;5114453;28;20016;-85
2023/11/22 05:33:37;;;;;;;9.55;2.95;;;;;;;;;;5114270;28;20436;-87
2023/11/22 05:36:03;;;;;;;4.73;2.80;;;;;;;;;;5098301;28;20483;-85
2023/11/22 05:38:28;;;;;;;5.38;3.03;;;;;;;;;;5114566;28;20585;-85
2023/11/22 05:40:53;;;;;;;5.68;3.25;;;;;;;;;;5113826;28;20043;-84
2023/11/22 05:43:25;;;;;;;5.45;3.20;;;;;;;;;;5114581;28;20027;-85
2023/11/22 05:45:50;;;;;;;5.40;3.20;;;;;;;;;;5096600;28;20447;-85
2023/11/22 05:48:15;;;;;;;6.22;3.38;;;;;;;;;;5114590;28;20528;-85
2023/11/22 05:50:40;;;;;;;6.83;3.73;;;;;;;;;;5114826;28;20027;-84
2023/11/22 05:53:06;;;;;;;5.90;3.20;;;;;;;;;;5114680;28;20236;-84
2023/11/22 05:55:32;;;;;;;5.63;3.10;;;;;;;;;;5114680;28;20027;-84
2023/11/22 05:57:57;;;;;;;6.80;3.60;;;;;;;;;;5114624;28;20024;-85
2023/11/22 06:00:22;;;;;;;8.53;3.77;;;;;;;;;;5114711;28;20023;-85
2023/11/22 06:02:47;;;;;;;7.23;3.70;;;;;;;;;;5114672;28;20271;-85
2023/11/22 06:05:12;;;;;;;6.37;3.40;;;;;;;;;;5114625;28;20244;-84
2023/11/22 06:07:38;;;;;;;7.33;3.57;;;;;;;;;;5114560;28;20267;-84
2023/11/22 06:10:03;;;;;;;7.47;3.47;;;;;;;;;;5114606;28;20244;-84
2023/11/22 06:12:28;;;;;;;7.15;3.28;;;;;;;;;;5114173;28;20288;-84
2023/11/22 06:14:53;;;;;;;6.73;3.67;;;;;;;;;;5114355;28;20031;-84
2023/11/22 06:17:19;;;;;;;11.10;4.13;;;;;;;;;;5114294;28;20256;-85
2023/11/22 06:19:44;;;;;;;6.90;3.65;;;;;;;;;;5114028;28;20035;-85
2023/11/22 06:22:09;;;;;;;8.52;3.65;;;;;;;;;;5114418;28;20020;-85
2023/11/22 06:24:35;;;;;;;8.00;3.13;;;;;;;;;;5114008;28;20422;-84
2023/11/22 06:27:01;;;;;;;5.45;3.15;;;;;;;;;;5114015;28;20705;-84
2023/11/22 06:29:26;;;;;;;4.97;3.10;;;;;;;;;;5114242;28;20102;-84
2023/11/22 06:31:52;;;;;;;7.77;3.60;;;;;;;;;;5114221;28;20050;-84
2023/11/22 06:34:17;;;;;;;7.32;3.35;;;;;;;;;;5114217;28;20107;-85
2023/11/22 06:36:43;;;;;;;5.73;3.37;;;;;;;;;;5095812;28;20368;-84
2023/11/22 06:39:09;;;;;;;6.97;3.67;;;;;;;;;;5113877;28;20020;-84
2023/11/22 06:41:34;;;;;;;5.43;3.30;;;;;;;;;;5117068;28;20069;-84
2023/11/22 06:43:59;;;;;;;5.50;3.17;;;;;;;;;;5117947;28;20403;-85
2023/11/22 06:46:24;;;;;;;6.90;3.03;;;;;;;;;;5118177;28;20030;-84
2023/11/22 06:48:50;;;;;;;6.63;3.60;;;;;;;;;;5117842;28;20282;-84
2023/11/22 06:51:15;;;;;;;5.07;2.97;;;;;;;;;;5118208;28;20260;-84
2023/11/22 06:53:40;;;;;;;6.72;3.15;;;;;;;;;;5118008;28;20235;-85
2023/11/22 06:56:06;;;;;;;6.57;3.63;;;;;;;;;;5117967;28;20023;-84
2023/11/22 06:58:31;;;;;;;5.95;2.92;;;;;;;;;;5117523;28;20026;-84
2023/11/22 07:00:56;;;;;;;5.90;3.33;;;;;;;;;;5117713;28;20030;-85
2023/11/22 07:03:22;;;;;;;6.88;3.13;;;;;;;;;;5099704;28;20257;-84
2023/11/22 07:05:47;;;;;;;7.90;3.57;;;;;;;;;;5118022;28;20106;-84
2023/11/22 07:08:12;;;;;;;5.97;3.50;;;;;;;;;;5117365;28;20359;-84
2023/11/22 07:10:37;;;;;;;24.57;11.83;;;;;;;;;;5117787;28;20030;-84
2023/11/22 07:13:03;;;;;;;14.15;6.65;;;;;;;;;;5117773;28;20336;-85
2023/11/22 07:15:29;;;;;;;25.50;9.50;;;;;;;;;;5117463;28;20016;-84
2023/11/22 07:17:54;;;;;;;18.60;7.32;;;;;;;;;;5117597;28;20327;-84
2023/11/22 07:20:20;;;;;;;18.80;7.40;;;;;;;;;;5117566;28;20008;-85
2023/11/22 07:22:45;;;;;;;14.48;7.03;;;;;;;;;;5117457;28;20026;-84
2023/11/22 07:25:20;;;;;;;19.35;7.28;;;;;;;;;;5099488;28;20020;-84
2023/11/22 07:27:46;;;;;;;14.38;6.97;;;;;;;;;;5117396;28;20051;-84
2023/11/22 07:30:13;;;;;;;13.18;6.65;;;;;;;;;;5117602;28;20372;-84
2023/11/22 07:32:39;;;;;;;13.90;6.93;;;;;;;;;;5099042;28;20335;-84
2023/11/22 07:35:05;;;;;;;13.90;6.57;;;;;;;;;;5116818;28;20023;-84
2023/11/22 07:37:31;;;;;;;15.10;5.80;;;;;;;;;;5117236;28;20094;-85
2023/11/22 07:39:57;;;;;;;12.57;5.68;;;;;;;;;;5117240;28;20410;-85
2023/11/22 07:42:22;;;;;;;15.00;6.63;;;;;;;;;;5117306;28;20467;-84
2023/11/22 07:44:47;;;;;;;10.48;5.00;;;;;;;;;;5117528;28;20028;-84
2023/11/22 07:47:13;;;;;;;7.95;4.63;;;;;;;;;;5116755;28;20023;-84
2023/11/22 07:49:39;;;;;;;12.20;5.65;;;;;;;;;;5116715;28;20016;-85
2023/11/22 07:52:05;;;;;;;8.93;5.75;;;;;;;;;;5116102;28;20024;-84
2023/11/22 07:54:31;;;;;;;15.20;7.82;;;;;;;;;;5116911;28;20022;-84
2023/11/22 07:56:56;;;;;;;16.73;7.38;;;;;;;;;;5117015;28;20024;-84
2023/11/22 07:59:21;;;;;;;22.60;11.40;;;;;;;;;;5117196;28;20481;-85
2023/11/22 08:01:49;;;;;;;16.73;9.47;;;;;;;;;;5116673;28;20704;-84
2023/11/22 08:04:16;;;;;;;18.75;8.20;;;;;;;;;;5116704;28;20259;-84
2023/11/22 08:06:41;;;;;;;18.98;10.35;;;;;;;;;;5116457;28;20532;-84
2023/11/22 08:09:09;;;;;;;19.60;11.63;;;;;;;;;;5098160;28;20118;-85
2023/11/22 08:11:35;;;;;;;26.58;13.68;;;;;;;;;;5116465;28;20022;-84
2023/11/22 08:14:01;;;;;;;20.23;9.93;;;;;;;;;;5116615;28;20490;-85
2023/11/22 08:16:26;;;;;;;25.40;13.13;;;;;;;;;;5098258;28;20028;-84
2023/11/22 08:18:52;;;;;;;16.00;8.50;;;;;;;;;;5116512;28;20372;-84
2023/11/22 08:21:18;;;;;;;29.58;14.20;;;;;;;;;;5116488;28;20023;-84
2023/11/22 08:23:43;;;;;;;17.67;8.10;;;;;;;;;;5116015;28;20358;-84
2023/11/22 08:26:08;;;;;;;15.70;8.20;;;;;;;;;;5116459;28;20020;-84
2023/11/22 08:28:34;;;;;;;15.30;7.80;;;;;;;;;;5116341;28;20280;-84
2023/11/22 08:31:00;;;;;;;13.82;7.60;;;;;;;;;;5115814;28;20020;-84
2023/11/22 08:33:26;;;;;;;14.40;6.30;;;;;;;;;;5116290;28;20047;-85
2023/11/22 08:35:58;;;;;;;10.18;5.72;;;;;;;;;;5098088;28;20060;-85
2023/11/22 08:38:23;;;;;;;13.70;6.15;;;;;;;;;;5097990;28;20497;-85
2023/11/22 08:40:48;;;;;;;10.13;5.40;;;;;;;;;;5115774;28;20109;-84
2023/11/22 08:43:13;;;;;;;8.33;5.43;;;;;;;;;;5116162;28;20647;-85
2023/11/22 08:45:38;;;;;;;8.83;5.07;;;;;;;;;;5116096;28;20765;-85
2023/11/22 08:48:04;;;;;;;7.73;4.47;;;;;;;;;;5115731;28;20737;-85
2023/11/22 08:50:29;;;;;;;8.32;4.47;;;;;;;;;;5115469;28;20705;-84
2023/11/22 08:52:54;;;;;;;9.43;4.05;;;;;;;;;;5097490;28;20030;-85
2023/11/22 08:55:22;;;;;;;11.30;4.53;;;;;;;;;;5116011;28;20444;-85
2023/11/22 08:57:47;;;;;;;10.07;4.43;;;;;;;;;;5116004;28;20023;-85
2023/11/22 09:00:14;;;;;;;6.78;3.75;;;;;;;;;;5115736;28;20015;-85
2023/11/22 09:02:40;;;;;;;8.77;4.20;;;;;;;;;;5097333;28;20028;-85
2023/11/22 09:05:07;;;;;;;8.70;4.28;;;;;;;;;;5096355;28;20354;-85
2023/11/22 09:07:34;;;;;;;7.40;3.40;;;;;;;;;;5115244;28;20026;-85
2023/11/22 09:09:59;;;;;;;7.90;3.97;;;;;;;;;;5115692;28;20106;-84
2023/11/22 09:12:26;;;;;;;6.73;3.77;;;;;;;;;;5115278;28;20514;-85
2023/11/22 09:14:53;;;;;;;5.70;2.95;;;;;;;;;;5115098;28;20290;-85
2023/11/22 09:17:18;;;;;;;10.20;3.85;;;;;;;;;;5115016;28;20452;-85
2023/11/22 09:19:43;;;;;;;7.70;4.10;;;;;;;;;;5115298;28;20020;-85
2023/11/22 09:22:10;;;;;;;6.97;3.78;;;;;;;;;;5115379;28;20023;-84
2023/11/22 09:24:36;;;;;;;8.93;3.88;;;;;;;;;;5115401;28;20016;-85
2023/11/22 09:27:05;;;;;;;4.72;2.72;;;;;;;;;;5114686;28;20019;-84
2023/11/22 09:29:30;;;;;;;8.18;3.40;;;;;;;;;;5114717;28;20369;-84
2023/11/22 09:31:56;;;;;;;4.97;3.00;;;;;;;;;;5114754;28;20023;-84
2023/11/22 09:34:21;;;;;;;6.18;3.58;;;;;;;;;;5114989;28;20259;-85
2023/11/22 09:36:47;;;;;;;9.65;3.70;;;;;;;;;;5115154;28;20024;-84
2023/11/22 09:39:12;;;;;;;7.87;3.43;;;;;;;;;;5114861;28;20026;-84
2023/11/22 09:41:39;;;;;;;4.80;2.75;;;;;;;;;;5114829;28;20240;-84
2023/11/22 09:44:05;;;;;;;7.75;3.65;;;;;;;;;;5114902;28;20039;-85
2023/11/22 09:46:31;;;;;;;6.18;3.50;;;;;;;;;;5114802;28;20027;-85
2023/11/22 09:48:57;;;;;;;3.50;2.22;;;;;;;;;;5115189;28;20076;-84
2023/11/22 09:51:28;;;;;;;5.70;3.15;;;;;;;;;;5114676;28;20028;-84
2023/11/22 09:54:07;;;;;;;6.47;3.15;;;;;;;;;;5114801;28;20104;-85
2023/11/22 09:56:32;;;;;;;5.25;2.72;;;;;;;;;;5114941;28;20027;-84
2023/11/22 09:59:00;;;;;;;6.00;3.25;;;;;;;;;;5114332;28;20039;-84
2023/11/22 10:01:27;;;;;;;7.50;2.90;;;;;;;;;;5114468;28;20046;-84
2023/11/22 10:03:53;;;;;;;5.07;2.95;;;;;;;;;;5114170;28;20020;-85
2023/11/22 10:06:19;;;;;;;5.07;2.95;;;;;;;;;;5114499;28;20027;-84
2023/11/22 10:08:47;;;;;;;5.57;2.45;;;;;;;;;;5114293;28;20040;-84
2023/11/22 10:11:14;;;;;;;4.20;2.60;;;;;;;;;;5096245;28;20026;-84
2023/11/22 10:13:39;;;;;;;5.53;2.70;;;;;;;;;;5114538;28;20438;-84
2023/11/22 10:16:15;;;;;;;4.85;2.60;;;;;;;;;;5114219;28;20020;-84
2023/11/22 10:18:47;;;;;;;3.83;2.25;;;;;;;;;;5114293;28;20103;-85
2023/11/22 10:21:23;;;;;;;3.97;2.40;;;;;;;;;;5096081;28;20015;-84
2023/11/22 10:23:51;;;;;;;8.15;2.88;;;;;;;;;;5114075;28;20024;-84
2023/11/22 10:26:17;;;;;;;5.15;2.50;;;;;;;;;;5114271;28;20028;-84
2023/11/22 10:28:45;;;;;;;6.93;2.42;;;;;;;;;;5095853;28;20035;-84
2023/11/22 10:31:11;;;;;;;4.25;2.30;;;;;;;;;;5114257;28;20024;-84
2023/11/22 10:33:43;;;;;;;4.03;2.17;;;;;;;;;;5095972;28;20020;-84
2023/11/22 10:36:08;;;;;;;3.47;2.20;;;;;;;;;;5114524;28;20030;-84
2023/11/22 10:38:34;;;;;;;5.78;2.65;;;;;;;;;;5096024;28;20023;-84
2023/11/22 10:41:01;;;;;;;5.57;2.22;;;;;;;;;;5096008;28;20486;-85
2023/11/22 10:43:29;;;;;;;4.53;2.70;;;;;;;;;;5114145;28;20461;-85
2023/11/22 10:45:55;;;;;;;3.67;2.60;;;;;;;;;;5114028;28;20023;-85
2023/11/22 10:48:21;;;;;;;7.53;2.97;;;;;;;;;;5114073;28;20039;-84
2023/11/22 10:50:46;;;;;;;5.45;2.92;;;;;;;;;;5095847;28;20120;-84
2023/11/22 10:53:15;;;;;;;6.75;3.05;;;;;;;;;;5095794;28;20019;-85
2023/11/22 10:55:47;;;;;;;6.47;2.83;;;;;;;;;;5114272;28;20016;-85
2023/11/22 10:58:13;;;;;;;4.65;2.78;;;;;;;;;;5113891;28;20037;-84
2023/11/22 11:00:41;;;;;;;4.82;2.50;;;;;;;;;;5114073;28;20110;-84
2023/11/22 11:03:17;;;;;;;5.30;2.28;;;;;;;;;;5095634;28;20020;-85
2023/11/22 11:05:50;;;;;;;3.72;2.65;;;;;;;;;;5113996;28;20521;-85
2023/11/22 11:08:17;;;;;;;4.03;2.63;;;;;;;;;;5113503;28;20036;-84
2023/11/22 11:10:44;;;;;;;6.82;3.25;;;;;;;;;;5113898;28;20020;-85
2023/11/22 11:13:10;;;;;;;5.15;2.85;;;;;;;;;;5114037;28;20046;-85
2023/11/22 11:15:39;;;;;;;4.85;2.97;;;;;;;;;;5114034;28;20023;-85
2023/11/22 11:18:10;;;;;;;3.35;2.47;;;;;;;;;;5113927;28;20028;-85
2023/11/22 11:20:47;;;;;;;5.10;2.75;;;;;;;;;;5095800;28;20032;-84
2023/11/22 11:23:19;;;;;;;6.03;3.03;;;;;;;;;;5095543;28;20360;-84
2023/11/22 11:25:47;;;;;;;4.72;2.63;;;;;;;;;;5113725;28;20030;-84
2023/11/22 11:28:12;;;;;;;6.32;2.38;;;;;;;;;;5115417;28;20085;-84
2023/11/22 11:30:40;;;;;;;3.10;2.20;;;;;;;;;;5117388;28;20446;-85
2023/11/22 11:33:07;;;;;;;4.82;2.45;;;;;;;;;;5117386;28;20240;-85
2023/11/22 11:35:42;;;;;;;4.95;2.55;;;;;;;;;;5117338;28;20019;-85
2023/11/22 11:38:09;;;;;;;5.55;2.67;;;;;;;;;;5117245;28;20045;-85
2023/11/22 11:40:34;;;;;;;4.88;2.63;;;;;;;;;;5117227;28;20080;-85
2023/11/22 11:42:59;;;;;;;5.15;2.72;;;;;;;;;;5117017;28;20019;-85
2023/11/22 11:45:26;;;;;;;5.40;3.05;;;;;;;;;;5117152;28;20102;-85
2023/11/22 11:47:52;;;;;;;5.25;2.92;;;;;;;;;;5117299;28;20101;-84
2023/11/22 11:50:17;;;;;;;6.50;2.97;;;;;;;;;;5117098;28;20473;-85
2023/11/22 11:52:42;;;;;;;5.13;2.67;;;;;;;;;;5116868;28;20630;-85
2023/11/22 11:55:08;;;;;;;3.72;2.42;;;;;;;;;;5116994;28;20412;-84
2023/11/22 11:57:33;;;;;;;4.75;2.30;;;;;;;;;;5116669;28;20027;-85
2023/11/22 11:59:59;;;;;;;3.97;2.20;;;;;;;;;;5116785;28;20023;-85
2023/11/22 12:02:24;;;;;;;4.10;2.63;;;;;;;;;;5116814;28;20023;-86
2023/11/22 12:04:49;;;;;;;6.82;2.70;;;;;;;;;;5116637;28;20072;-85
2023/11/22 12:07:15;;;;;;;4.85;2.45;;;;;;;;;;5116795;28;20459;-84
2023/11/22 12:09:40;;;;;;;3.45;2.33;;;;;;;;;;5116620;28;20100;-85
2023/11/22 12:12:06;;;;;;;6.63;2.80;;;;;;;;;;5116408;28;20043;-85
2023/11/22 12:14:31;;;;;;;3.53;2.03;;;;;;;;;;5116258;28;20016;-84
2023/11/22 12:16:59;;;;;;;4.15;2.22;;;;;;;;;;5116660;28;20020;-85
2023/11/22 12:19:25;;;;;;;3.53;2.10;;;;;;;;;;5098293;28;20023;-85
2023/11/22 12:21:51;;;;;;;3.85;2.25;;;;;;;;;;5116467;28;20016;-85
2023/11/22 12:24:16;;;;;;;4.18;2.42;;;;;;;;;;5116603;28;20023;-84
2023/11/22 12:26:45;;;;;;;3.45;2.25;;;;;;;;;;5115920;28;20019;-85
2023/11/22 12:29:13;;;;;;;4.70;2.35;;;;;;;;;;5116069;28;20062;-84
2023/11/22 12:31:43;;;;;;;5.55;2.58;;;;;;;;;;5116279;28;20031;-84
2023/11/22 12:34:09;;;;;;;4.68;2.72;;;;;;;;;;5116177;28;20023;-85
2023/11/22 12:36:36;;;;;;;4.63;2.55;;;;;;;;;;5116048;28;20440;-85
2023/11/22 12:39:03;;;;;;;6.05;2.60;;;;;;;;;;5115841;28;20468;-85
2023/11/22 12:41:30;;;;;;;3.42;1.90;;;;;;;;;;5116403;28;20027;-85
2023/11/22 12:44:01;;;;;;;5.13;2.40;;;;;;;;;;5116042;28;20024;-85
2023/11/22 12:46:27;;;;;;;4.53;2.35;;;;;;;;;;5115991;28;20034;-84
2023/11/22 12:49:04;;;;;;;3.53;2.17;;;;;;;;;;5097696;28;20032;-85
2023/11/22 12:51:30;;;;;;;4.60;2.38;;;;;;;;;;5115806;28;20019;-85
2023/11/22 12:53:56;;;;;;;3.75;2.30;;;;;;;;;;5115803;28;20030;-84
2023/11/22 12:56:22;;;;;;;3.95;2.20;;;;;;;;;;5115793;28;20028;-85
2023/11/22 12:58:47;;;;;;;6.40;2.40;;;;;;;;;;5115364;28;20031;-84
2023/11/22 13:01:13;;;;;;;9.80;2.53;;;;;;;;;;5115371;28;20370;-84
2023/11/22 13:03:38;;;;;;;3.72;2.00;;;;;;;;;;5115396;28;20414;-84
2023/11/22 13:06:03;;;;;;;3.88;2.22;;;;;;;;;;5115544;28;20103;-84
2023/11/22 13:08:29;;;;;;;5.75;2.40;;;;;;;;;;5115211;28;20107;-84
2023/11/22 13:10:55;;;;;;;4.07;2.15;;;;;;;;;;5115452;28;20016;-86
2023/11/22 13:13:23;;;;;;;9.70;2.17;;;;;;;;;;5115006;28;20051;-84
2023/11/22 13:15:49;;;;;;;5.55;2.50;;;;;;;;;;5097054;28;20383;-84
2023/11/22 13:18:16;;;;;;;3.42;2.20;;;;;;;;;;5115324;28;20024;-85
2023/11/22 13:20:42;;;;;;;4.25;2.55;;;;;;;;;;5115192;28;20019;-84
2023/11/22 13:23:07;;;;;;;4.60;2.30;;;;;;;;;;5115279;28;20020;-84
2023/11/22 13:25:33;;;;;;;3.33;2.22;;;;;;;;;;5115560;28;20034;-85
2023/11/22 13:27:59;;;;;;;3.50;1.90;;;;;;;;;;5114986;28;20031;-85
2023/11/22 13:30:24;;;;;;;4.10;2.22;;;;;;;;;;5115141;28;20770;-84
2023/11/22 13:32:50;;;;;;;3.40;2.03;;;;;;;;;;5096992;28;20114;-84
2023/11/22 13:35:17;;;;;;;3.28;1.92;;;;;;;;;;5115237;28;20472;-85
2023/11/22 13:37:42;;;;;;;4.35;2.20;;;;;;;;;;5115342;28;20044;-85
2023/11/22 13:40:12;;;;;;;3.95;2.28;;;;;;;;;;5114898;28;20108;-84
2023/11/22 13:42:37;;;;;;;3.20;2.38;;;;;;;;;;5114997;28;20019;-85
2023/11/22 13:45:03;;;;;;;4.82;2.55;;;;;;;;;;5114515;28;20019;-84
2023/11/22 13:47:29;;;;;;;3.40;2.28;;;;;;;;;;5114815;28;20023;-85
2023/11/22 13:49:54;;;;;;;6.38;2.28;;;;;;;;;;5095683;28;20022;-85
2023/11/22 13:52:19;;;;;;;2.80;2.10;;;;;;;;;;5114560;28;20024;-85
2023/11/22 13:54:45;;;;;;;3.03;2.07;;;;;;;;;;5114630;28;20254;-85
2023/11/22 13:57:11;;;;;;;7.60;2.03;;;;;;;;;;5114710;28;20282;-84
2023/11/22 13:59:36;;;;;;;2.75;2.00;;;;;;;;;;5114270;28;20024;-84
2023/11/22 14:02:01;;;;;;;5.03;2.27;;;;;;;;;;5114531;28;20051;-84
2023/11/22 14:04:26;;;;;;;5.33;2.57;;;;;;;;;;5114656;28;20280;-85
2023/11/22 14:06:51;;;;;;;6.97;2.50;;;;;;;;;;5114292;28;20319;-84
2023/11/22 14:09:19;;;;;;;8.07;3.83;;;;;;;;;;5113967;28;20666;-85
2023/11/22 14:11:44;;;;;;;6.30;3.92;;;;;;;;;;5095987;28;20028;-84
2023/11/22 14:14:09;;;;;;;3.97;2.60;;;;;;;;;;5114038;28;20376;-84
2023/11/22 14:16:38;;;;;;;4.83;2.83;;;;;;;;;;5096053;28;20725;-85
2023/11/22 14:19:05;;;;;;;6.90;2.70;;;;;;;;;;5114498;28;20026;-84
2023/11/22 14:21:32;;;;;;;5.30;3.22;;;;;;;;;;5114355;28;20027;-84
2023/11/22 14:23:57;;;;;;;6.57;2.80;;;;;;;;;;5096176;28;20027;-85
2023/11/22 14:26:22;;;;;;;4.07;2.13;;;;;;;;;;5096228;28;20027;-84
2023/11/22 14:28:48;;;;;;;3.30;2.10;;;;;;;;;;5113798;28;20282;-84
2023/11/22 14:31:14;;;;;;;3.90;2.67;;;;;;;;;;5114169;28;20359;-85
2023/11/22 14:33:39;;;;;;;5.43;2.13;;;;;;;;;;5113987;28;20051;-85